Middleburg Heights, Ohio
Current Conditions -  °F | °C
As of 12:40 AM on Tuesday 27 Jan 2015 (Local Time) from KCLE Reporting Station
Light Snow Light Snow  
Wind Chill: 10°   Ceiling: 3000
Heat Index: 20°   Visibility: 7mi
Dew Point: 15°   Wind: 8mph
Humidity: 81%   Direction: 30°NNE
Pressure: 29.94"   Gusts: NA
Location:  41.3776°N, 81.7863°W
Report Text: KCLE 270540Z 03007KT 7SM -SN OVC030 M07/M09 A2994 RMK AO2 P0000 T10671094 $
Loading
Personal Weather Stations






























Interactive Weather Map New forecast layout! Learn more

10-Day Weather Forecast

Advertisements
Track Severe Weather on mobile